sensor_id;sensor_type;location;lat;lon;timestamp;temperature;humidity
30764;DHT22;17497;51.476;7.770;2022-10-15T00:01:09;13.40;99.90
30764;DHT22;17497;51.476;7.770;2022-10-15T00:03:39;13.40;99.90
30764;DHT22;17497;51.476;7.770;2022-10-15T00:06:08;13.40;99.90
30764;DHT22;17497;51.476;7.770;2022-10-15T00:08:36;13.40;99.90
30764;DHT22;17497;51.476;7.770;2022-10-15T00:11:05;13.50;99.90
30764;DHT22;17497;51.476;7.770;2022-10-15T00:13:32;13.50;99.90
30764;DHT22;17497;51.476;7.770;2022-10-15T00:16:00;13.50;99.90
30764;DHT22;17497;51.476;7.770;2022-10-15T00:18:27;13.50;99.90
30764;DHT22;17497;51.476;7.770;2022-10-15T00:20:54;13.40;99.90
30764;DHT22;17497;51.476;7.770;2022-10-15T00:23:21;13.30;99.90
30764;DHT22;17497;51.476;7.770;2022-10-15T00:25:48;13.20;99.90
30764;DHT22;17497;51.476;7.770;2022-10-15T00:28:14;13.20;99.90
30764;DHT22;17497;51.476;7.770;2022-10-15T00:30:41;13.20;99.90
30764;DHT22;17497;51.476;7.770;2022-10-15T00:33:08;13.20;99.90
30764;DHT22;17497;51.476;7.770;2022-10-15T00:35:35;13.10;99.90
30764;DHT22;17497;51.476;7.770;2022-10-15T00:38:01;13.20;99.90
30764;DHT22;17497;51.476;7.770;2022-10-15T00:40:28;13.10;99.90
30764;DHT22;17497;51.476;7.770;2022-10-15T00:42:55;13.10;99.90
30764;DHT22;17497;51.476;7.770;2022-10-15T00:45:22;13.10;99.90
30764;DHT22;17497;51.476;7.770;2022-10-15T00:47:49;13.10;99.90
30764;DHT22;17497;51.476;7.770;2022-10-15T00:50:22;13.10;99.90
30764;DHT22;17497;51.476;7.770;2022-10-15T00:53:06;13.10;99.90
30764;DHT22;17497;51.476;7.770;2022-10-15T00:55:40;13.10;99.90
30764;DHT22;17497;51.476;7.770;2022-10-15T00:58:10;13.10;99.90
30764;DHT22;17497;51.476;7.770;2022-10-15T01:00:43;13.10;99.90
30764;DHT22;17497;51.476;7.770;2022-10-15T01:03:10;13.10;99.90
30764;DHT22;17497;51.476;7.770;2022-10-15T01:05:38;13.10;99.90
30764;DHT22;17497;51.476;7.770;2022-10-15T01:08:05;13.10;99.90
30764;DHT22;17497;51.476;7.770;2022-10-15T01:10:41;13.10;99.90
30764;DHT22;17497;51.476;7.770;2022-10-15T01:13:14;13.10;99.90
30764;DHT22;17497;51.476;7.770;2022-10-15T01:19:15;13.10;99.90
30764;DHT22;17497;51.476;7.770;2022-10-15T01:21:42;13.10;99.90
30764;DHT22;17497;51.476;7.770;2022-10-15T01:27:14;13.10;99.90
30764;DHT22;17497;51.476;7.770;2022-10-15T01:30:03;13.10;99.90
30764;DHT22;17497;51.476;7.770;2022-10-15T01:32:38;13.10;99.90
30764;DHT22;17497;51.476;7.770;2022-10-15T01:35:30;13.10;99.90
30764;DHT22;17497;51.476;7.770;2022-10-15T01:40:58;13.00;99.90
30764;DHT22;17497;51.476;7.770;2022-10-15T01:43:31;13.00;99.90
30764;DHT22;17497;51.476;7.770;2022-10-15T01:46:05;12.90;99.90
30764;DHT22;17497;51.476;7.770;2022-10-15T01:48:33;12.90;99.90
30764;DHT22;17497;51.476;7.770;2022-10-15T01:51:04;12.90;99.90
30764;DHT22;17497;51.476;7.770;2022-10-15T01:53:33;12.90;99.90
30764;DHT22;17497;51.476;7.770;2022-10-15T01:56:05;12.80;99.90
30764;DHT22;17497;51.476;7.770;2022-10-15T01:58:35;12.80;99.90
30764;DHT22;17497;51.476;7.770;2022-10-15T02:01:04;12.70;99.90
30764;DHT22;17497;51.476;7.770;2022-10-15T02:03:31;12.70;99.90
30764;DHT22;17497;51.476;7.770;2022-10-15T02:06:07;12.70;99.90
30764;DHT22;17497;51.476;7.770;2022-10-15T02:09:03;12.70;99.90
30764;DHT22;17497;51.476;7.770;2022-10-15T02:14:39;12.70;99.90
30764;DHT22;17497;51.476;7.770;2022-10-15T02:17:09;12.70;99.90
30764;DHT22;17497;51.476;7.770;2022-10-15T02:19:49;12.70;99.90
30764;DHT22;17497;51.476;7.770;2022-10-15T02:24:54;12.70;99.90
30764;DHT22;17497;51.476;7.770;2022-10-15T02:27:22;12.70;99.90
30764;DHT22;17497;51.476;7.770;2022-10-15T02:29:50;12.70;99.90
30764;DHT22;17497;51.476;7.770;2022-10-15T02:32:20;12.70;99.90
30764;DHT22;17497;51.476;7.770;2022-10-15T02:34:49;12.70;99.90
30764;DHT22;17497;51.476;7.770;2022-10-15T02:37:21;12.70;99.90
30764;DHT22;17497;51.476;7.770;2022-10-15T02:39:48;12.80;99.90
30764;DHT22;17497;51.476;7.770;2022-10-15T02:42:16;12.80;99.90
30764;DHT22;17497;51.476;7.770;2022-10-15T02:44:43;12.80;99.90
30764;DHT22;17497;51.476;7.770;2022-10-15T02:47:10;12.80;99.90
30764;DHT22;17497;51.476;7.770;2022-10-15T02:49:37;12.80;99.90
30764;DHT22;17497;51.476;7.770;2022-10-15T02:52:04;12.80;99.90
30764;DHT22;17497;51.476;7.770;2022-10-15T02:54:31;12.80;99.90
30764;DHT22;17497;51.476;7.770;2022-10-15T02:56:58;12.80;99.90
30764;DHT22;17497;51.476;7.770;2022-10-15T02:59:24;12.80;99.90
30764;DHT22;17497;51.476;7.770;2022-10-15T03:01:51;12.80;99.90
30764;DHT22;17497;51.476;7.770;2022-10-15T03:04:18;12.80;99.90
30764;DHT22;17497;51.476;7.770;2022-10-15T03:06:44;12.80;99.90
30764;DHT22;17497;51.476;7.770;2022-10-15T03:09:11;12.80;99.90
30764;DHT22;17497;51.476;7.770;2022-10-15T03:11:39;12.80;99.90
30764;DHT22;17497;51.476;7.770;2022-10-15T03:14:06;12.70;99.90
30764;DHT22;17497;51.476;7.770;2022-10-15T03:16:33;12.70;99.90
30764;DHT22;17497;51.476;7.770;2022-10-15T03:19:00;12.70;99.90
30764;DHT22;17497;51.476;7.770;2022-10-15T03:21:29;12.70;99.90
30764;DHT22;17497;51.476;7.770;2022-10-15T03:23:59;12.70;99.90
30764;DHT22;17497;51.476;7.770;2022-10-15T03:26:26;12.70;99.90
30764;DHT22;17497;51.476;7.770;2022-10-15T03:28:54;12.70;99.90
30764;DHT22;17497;51.476;7.770;2022-10-15T03:31:21;12.70;99.90
30764;DHT22;17497;51.476;7.770;2022-10-15T03:33:47;12.70;99.90
30764;DHT22;17497;51.476;7.770;2022-10-15T03:36:14;12.70;99.90
30764;DHT22;17497;51.476;7.770;2022-10-15T03:38:41;12.70;99.90
30764;DHT22;17497;51.476;7.770;2022-10-15T03:41:07;12.70;99.90
30764;DHT22;17497;51.476;7.770;2022-10-15T03:43:34;12.70;99.90
30764;DHT22;17497;51.476;7.770;2022-10-15T03:46:07;12.70;99.90
30764;DHT22;17497;51.476;7.770;2022-10-15T03:48:33;12.60;99.90
30764;DHT22;17497;51.476;7.770;2022-10-15T03:51:00;12.60;99.90
30764;DHT22;17497;51.476;7.770;2022-10-15T03:53:27;12.50;99.90
30764;DHT22;17497;51.476;7.770;2022-10-15T03:55:53;12.40;99.90
30764;DHT22;17497;51.476;7.770;2022-10-15T03:58:20;12.40;99.90
30764;DHT22;17497;51.476;7.770;2022-10-15T04:00:48;12.30;99.90
30764;DHT22;17497;51.476;7.770;2022-10-15T04:03:15;12.30;99.90
30764;DHT22;17497;51.476;7.770;2022-10-15T04:05:49;12.30;99.90
30764;DHT22;17497;51.476;7.770;2022-10-15T04:08:20;12.30;99.90
30764;DHT22;17497;51.476;7.770;2022-10-15T04:10:54;12.20;99.90
30764;DHT22;17497;51.476;7.770;2022-10-15T04:13:22;12.30;99.90
30764;DHT22;17497;51.476;7.770;2022-10-15T04:15:48;12.30;99.90
30764;DHT22;17497;51.476;7.770;2022-10-15T04:18:15;12.30;99.90
30764;DHT22;17497;51.476;7.770;2022-10-15T04:20:42;12.20;99.90
30764;DHT22;17497;51.476;7.770;2022-10-15T04:23:09;12.30;99.90
30764;DHT22;17497;51.476;7.770;2022-10-15T04:25:36;12.20;99.90
30764;DHT22;17497;51.476;7.770;2022-10-15T04:28:03;12.20;99.90
30764;DHT22;17497;51.476;7.770;2022-10-15T04:30:29;12.20;99.90
30764;DHT22;17497;51.476;7.770;2022-10-15T04:32:56;12.20;99.90
30764;DHT22;17497;51.476;7.770;2022-10-15T04:35:23;12.20;99.90
30764;DHT22;17497;51.476;7.770;2022-10-15T04:37:49;12.20;99.90
30764;DHT22;17497;51.476;7.770;2022-10-15T04:40:16;12.20;99.90
30764;DHT22;17497;51.476;7.770;2022-10-15T04:42:44;12.20;99.90
30764;DHT22;17497;51.476;7.770;2022-10-15T04:45:11;12.20;99.90
30764;DHT22;17497;51.476;7.770;2022-10-15T04:47:38;12.20;99.90
30764;DHT22;17497;51.476;7.770;2022-10-15T04:50:05;12.20;99.90
30764;DHT22;17497;51.476;7.770;2022-10-15T04:52:33;12.10;99.90
30764;DHT22;17497;51.476;7.770;2022-10-15T04:55:00;12.10;99.90
30764;DHT22;17497;51.476;7.770;2022-10-15T04:57:32;12.00;99.90
30764;DHT22;17497;51.476;7.770;2022-10-15T04:59:58;12.00;99.90
30764;DHT22;17497;51.476;7.770;2022-10-15T05:02:25;11.90;99.90
30764;DHT22;17497;51.476;7.770;2022-10-15T05:04:52;11.90;99.90
30764;DHT22;17497;51.476;7.770;2022-10-15T05:07:19;11.80;99.90
30764;DHT22;17497;51.476;7.770;2022-10-15T05:09:45;11.80;99.90
30764;DHT22;17497;51.476;7.770;2022-10-15T05:12:12;11.80;99.90
30764;DHT22;17497;51.476;7.770;2022-10-15T05:14:39;11.70;99.90
30764;DHT22;17497;51.476;7.770;2022-10-15T05:17:05;11.70;99.90
30764;DHT22;17497;51.476;7.770;2022-10-15T05:19:32;11.70;99.90
30764;DHT22;17497;51.476;7.770;2022-10-15T05:21:59;11.70;99.90
30764;DHT22;17497;51.476;7.770;2022-10-15T05:24:25;11.60;99.90
30764;DHT22;17497;51.476;7.770;2022-10-15T05:26:52;11.60;99.90
30764;DHT22;17497;51.476;7.770;2022-10-15T05:29:19;11.60;99.90
30764;DHT22;17497;51.476;7.770;2022-10-15T05:31:49;11.60;99.90
30764;DHT22;17497;51.476;7.770;2022-10-15T05:34:19;11.60;99.90
30764;DHT22;17497;51.476;7.770;2022-10-15T05:36:47;11.50;99.90
30764;DHT22;17497;51.476;7.770;2022-10-15T05:39:14;11.50;99.90
30764;DHT22;17497;51.476;7.770;2022-10-15T05:41:41;11.50;99.90
30764;DHT22;17497;51.476;7.770;2022-10-15T05:44:07;11.50;99.90
30764;DHT22;17497;51.476;7.770;2022-10-15T05:46:34;11.40;99.90
30764;DHT22;17497;51.476;7.770;2022-10-15T05:49:01;11.40;99.90
30764;DHT22;17497;51.476;7.770;2022-10-15T05:51:27;11.40;99.90
30764;DHT22;17497;51.476;7.770;2022-10-15T05:53:55;11.30;99.90
30764;DHT22;17497;51.476;7.770;2022-10-15T05:56:23;11.30;99.90
30764;DHT22;17497;51.476;7.770;2022-10-15T05:58:50;11.30;99.90
30764;DHT22;17497;51.476;7.770;2022-10-15T06:01:17;11.20;99.90
30764;DHT22;17497;51.476;7.770;2022-10-15T06:03:44;11.20;99.90
30764;DHT22;17497;51.476;7.770;2022-10-15T06:06:15;11.20;99.90
30764;DHT22;17497;51.476;7.770;2022-10-15T06:08:42;11.20;99.90
30764;DHT22;17497;51.476;7.770;2022-10-15T06:11:09;11.10;99.90
30764;DHT22;17497;51.476;7.770;2022-10-15T06:13:41;11.10;99.90
30764;DHT22;17497;51.476;7.770;2022-10-15T06:16:09;11.10;99.90
30764;DHT22;17497;51.476;7.770;2022-10-15T06:18:36;11.10;99.90
30764;DHT22;17497;51.476;7.770;2022-10-15T06:21:05;11.10;99.90
30764;DHT22;17497;51.476;7.770;2022-10-15T06:23:32;11.10;99.90
30764;DHT22;17497;51.476;7.770;2022-10-15T06:26:08;11.10;99.90
30764;DHT22;17497;51.476;7.770;2022-10-15T06:28:35;11.20;99.90
30764;DHT22;17497;51.476;7.770;2022-10-15T06:31:03;11.30;99.90
30764;DHT22;17497;51.476;7.770;2022-10-15T06:33:30;11.30;99.90
30764;DHT22;17497;51.476;7.770;2022-10-15T06:36:02;11.40;99.90
30764;DHT22;17497;51.476;7.770;2022-10-15T06:38:30;11.50;99.90
30764;DHT22;17497;51.476;7.770;2022-10-15T06:40:57;11.60;99.90
30764;DHT22;17497;51.476;7.770;2022-10-15T06:43:24;11.60;99.90
30764;DHT22;17497;51.476;7.770;2022-10-15T06:45:54;11.70;99.90
30764;DHT22;17497;51.476;7.770;2022-10-15T06:48:20;11.80;99.90
30764;DHT22;17497;51.476;7.770;2022-10-15T06:50:47;11.80;99.90
30764;DHT22;17497;51.476;7.770;2022-10-15T06:53:14;11.90;99.90
30764;DHT22;17497;51.476;7.770;2022-10-15T06:55:42;12.00;99.90
30764;DHT22;17497;51.476;7.770;2022-10-15T06:58:08;12.10;99.90
30764;DHT22;17497;51.476;7.770;2022-10-15T07:00:35;12.10;99.90
30764;DHT22;17497;51.476;7.770;2022-10-15T07:03:04;12.20;99.90
30764;DHT22;17497;51.476;7.770;2022-10-15T07:05:31;12.20;99.90
30764;DHT22;17497;51.476;7.770;2022-10-15T07:07:58;12.30;99.90
30764;DHT22;17497;51.476;7.770;2022-10-15T07:10:26;12.30;99.90
30764;DHT22;17497;51.476;7.770;2022-10-15T07:12:54;12.40;99.90
30764;DHT22;17497;51.476;7.770;2022-10-15T07:15:21;12.40;99.90
30764;DHT22;17497;51.476;7.770;2022-10-15T07:17:52;12.50;99.90
30764;DHT22;17497;51.476;7.770;2022-10-15T07:20:22;12.50;99.90
30764;DHT22;17497;51.476;7.770;2022-10-15T07:22:50;12.60;99.90
30764;DHT22;17497;51.476;7.770;2022-10-15T07:25:17;12.70;99.90
30764;DHT22;17497;51.476;7.770;2022-10-15T07:27:44;12.80;99.90
30764;DHT22;17497;51.476;7.770;2022-10-15T07:30:11;12.80;99.90
30764;DHT22;17497;51.476;7.770;2022-10-15T07:32:37;12.80;99.90
30764;DHT22;17497;51.476;7.770;2022-10-15T07:35:04;12.80;99.90
30764;DHT22;17497;51.476;7.770;2022-10-15T07:37:31;12.90;99.90
30764;DHT22;17497;51.476;7.770;2022-10-15T07:39:58;13.00;99.90
30764;DHT22;17497;51.476;7.770;2022-10-15T07:42:25;13.10;99.90
30764;DHT22;17497;51.476;7.770;2022-10-15T07:44:52;13.20;99.90
30764;DHT22;17497;51.476;7.770;2022-10-15T07:47:18;13.20;99.90
30764;DHT22;17497;51.476;7.770;2022-10-15T07:49:45;13.30;99.90
30764;DHT22;17497;51.476;7.770;2022-10-15T07:52:12;13.40;99.90
30764;DHT22;17497;51.476;7.770;2022-10-15T07:54:38;13.40;99.90
30764;DHT22;17497;51.476;7.770;2022-10-15T07:57:05;13.40;99.90
30764;DHT22;17497;51.476;7.770;2022-10-15T07:59:35;13.50;99.90
30764;DHT22;17497;51.476;7.770;2022-10-15T08:02:02;13.60;99.90
30764;DHT22;17497;51.476;7.770;2022-10-15T08:04:28;13.70;99.90
30764;DHT22;17497;51.476;7.770;2022-10-15T08:06:55;13.70;99.90
30764;DHT22;17497;51.476;7.770;2022-10-15T08:09:22;13.70;99.90
30764;DHT22;17497;51.476;7.770;2022-10-15T08:11:49;13.70;99.90
30764;DHT22;17497;51.476;7.770;2022-10-15T08:14:15;13.80;99.90
30764;DHT22;17497;51.476;7.770;2022-10-15T08:16:43;13.90;99.90
30764;DHT22;17497;51.476;7.770;2022-10-15T08:19:09;14.00;99.90
30764;DHT22;17497;51.476;7.770;2022-10-15T08:21:36;14.00;99.90
30764;DHT22;17497;51.476;7.770;2022-10-15T08:24:03;14.10;99.90
30764;DHT22;17497;51.476;7.770;2022-10-15T08:26:30;14.20;99.90
30764;DHT22;17497;51.476;7.770;2022-10-15T08:28:56;14.20;99.90
30764;DHT22;17497;51.476;7.770;2022-10-15T08:31:23;14.50;99.90
30764;DHT22;17497;51.476;7.770;2022-10-15T08:33:50;14.60;99.90
30764;DHT22;17497;51.476;7.770;2022-10-15T08:36:18;14.80;99.90
30764;DHT22;17497;51.476;7.770;2022-10-15T08:38:44;14.90;99.90
30764;DHT22;17497;51.476;7.770;2022-10-15T08:44:17;15.10;99.90
30764;DHT22;17497;51.476;7.770;2022-10-15T08:46:49;15.30;99.90
30764;DHT22;17497;51.476;7.770;2022-10-15T08:49:50;15.40;99.90
30764;DHT22;17497;51.476;7.770;2022-10-15T08:52:25;15.40;99.90
30764;DHT22;17497;51.476;7.770;2022-10-15T08:54:55;15.40;99.90
30764;DHT22;17497;51.476;7.770;2022-10-15T08:57:38;15.50;99.90
30764;DHT22;17497;51.476;7.770;2022-10-15T09:00:16;15.50;99.90
30764;DHT22;17497;51.476;7.770;2022-10-15T09:11:02;15.70;99.90
30764;DHT22;17497;51.476;7.770;2022-10-15T09:13:39;15.80;99.90
30764;DHT22;17497;51.476;7.770;2022-10-15T09:16:16;15.90;99.90
30764;DHT22;17497;51.476;7.770;2022-10-15T09:18:46;16.00;99.90
30764;DHT22;17497;51.476;7.770;2022-10-15T09:21:14;16.20;99.90
30764;DHT22;17497;51.476;7.770;2022-10-15T09:23:41;16.30;99.90
30764;DHT22;17497;51.476;7.770;2022-10-15T09:26:29;16.60;99.90
30764;DHT22;17497;51.476;7.770;2022-10-15T09:29:33;16.70;99.90
30764;DHT22;17497;51.476;7.770;2022-10-15T09:32:18;16.70;99.90
30764;DHT22;17497;51.476;7.770;2022-10-15T09:34:58;16.70;99.90
30764;DHT22;17497;51.476;7.770;2022-10-15T09:37:37;16.80;99.90
30764;DHT22;17497;51.476;7.770;2022-10-15T09:42:56;16.90;99.90
30764;DHT22;17497;51.476;7.770;2022-10-15T09:45:23;17.00;99.90
30764;DHT22;17497;51.476;7.770;2022-10-15T09:47:51;17.20;99.90
30764;DHT22;17497;51.476;7.770;2022-10-15T09:50:21;17.50;99.90
30764;DHT22;17497;51.476;7.770;2022-10-15T09:53:02;17.90;99.90
30764;DHT22;17497;51.476;7.770;2022-10-15T10:00:56;18.10;99.90
30764;DHT22;17497;51.476;7.770;2022-10-15T10:03:34;17.90;99.90
30764;DHT22;17497;51.476;7.770;2022-10-15T10:06:12;17.80;99.90
30764;DHT22;17497;51.476;7.770;2022-10-15T10:08:49;17.60;99.90
30764;DHT22;17497;51.476;7.770;2022-10-15T10:11:16;17.50;99.90
30764;DHT22;17497;51.476;7.770;2022-10-15T10:16:22;17.60;99.90
30764;DHT22;17497;51.476;7.770;2022-10-15T10:19:13;17.50;99.90
30764;DHT22;17497;51.476;7.770;2022-10-15T10:21:42;17.60;99.90
30764;DHT22;17497;51.476;7.770;2022-10-15T10:24:27;17.70;99.90
30764;DHT22;17497;51.476;7.770;2022-10-15T10:26:56;17.80;99.90
30764;DHT22;17497;51.476;7.770;2022-10-15T10:29:24;17.80;99.90
30764;DHT22;17497;51.476;7.770;2022-10-15T10:32:22;17.70;99.90
30764;DHT22;17497;51.476;7.770;2022-10-15T10:34:56;17.60;99.90
30764;DHT22;17497;51.476;7.770;2022-10-15T10:37:24;17.40;99.90
30764;DHT22;17497;51.476;7.770;2022-10-15T10:39:56;17.40;99.90
30764;DHT22;17497;51.476;7.770;2022-10-15T10:42:33;17.40;99.90
30764;DHT22;17497;51.476;7.770;2022-10-15T10:45:15;17.30;99.90
30764;DHT22;17497;51.476;7.770;2022-10-15T10:47:44;17.60;99.90
30764;DHT22;17497;51.476;7.770;2022-10-15T10:50:31;17.80;99.90
30764;DHT22;17497;51.476;7.770;2022-10-15T10:53:19;17.90;99.90
30764;DHT22;17497;51.476;7.770;2022-10-15T10:55:47;17.90;99.90
30764;DHT22;17497;51.476;7.770;2022-10-15T10:58:19;17.90;99.90
30764;DHT22;17497;51.476;7.770;2022-10-15T11:00:52;17.90;99.90
30764;DHT22;17497;51.476;7.770;2022-10-15T11:03:39;17.90;99.90
30764;DHT22;17497;51.476;7.770;2022-10-15T11:06:25;17.90;99.90
30764;DHT22;17497;51.476;7.770;2022-10-15T11:11:58;18.60;99.90
30764;DHT22;17497;51.476;7.770;2022-10-15T11:14:31;18.70;99.90
30764;DHT22;17497;51.476;7.770;2022-10-15T11:19:57;18.90;99.90
30764;DHT22;17497;51.476;7.770;2022-10-15T11:30:47;18.50;99.90
30764;DHT22;17497;51.476;7.770;2022-10-15T11:41:46;17.30;99.90
30764;DHT22;17497;51.476;7.770;2022-10-15T11:47:20;17.00;99.90
30764;DHT22;17497;51.476;7.770;2022-10-15T11:50:13;17.10;99.90
30764;DHT22;17497;51.476;7.770;2022-10-15T11:58:09;17.90;99.90
30764;DHT22;17497;51.476;7.770;2022-10-15T12:00:48;18.00;99.90
30764;DHT22;17497;51.476;7.770;2022-10-15T12:03:21;18.10;99.90
30764;DHT22;17497;51.476;7.770;2022-10-15T12:06:04;18.20;99.90
30764;DHT22;17497;51.476;7.770;2022-10-15T12:08:36;18.40;99.90
30764;DHT22;17497;51.476;7.770;2022-10-15T12:13:59;18.70;99.90
30764;DHT22;17497;51.476;7.770;2022-10-15T12:22:05;20.00;99.90
30764;DHT22;17497;51.476;7.770;2022-10-15T12:32:39;19.70;99.90
30764;DHT22;17497;51.476;7.770;2022-10-15T12:37:46;20.30;99.90
30764;DHT22;17497;51.476;7.770;2022-10-15T12:42:53;20.30;99.90
30764;DHT22;17497;51.476;7.770;2022-10-15T12:50:41;20.30;99.90
30764;DHT22;17497;51.476;7.770;2022-10-15T12:58:37;20.20;99.90
30764;DHT22;17497;51.476;7.770;2022-10-15T13:01:26;19.80;99.90
30764;DHT22;17497;51.476;7.770;2022-10-15T13:03:57;19.80;99.90
30764;DHT22;17497;51.476;7.770;2022-10-15T13:06:30;19.60;99.90
30764;DHT22;17497;51.476;7.770;2022-10-15T13:11:44;19.20;99.90
30764;DHT22;17497;51.476;7.770;2022-10-15T13:16:46;19.00;99.90
30764;DHT22;17497;51.476;7.770;2022-10-15T13:22:01;18.80;99.90
30764;DHT22;17497;51.476;7.770;2022-10-15T13:24:37;18.70;99.90
30764;DHT22;17497;51.476;7.770;2022-10-15T13:27:35;18.50;99.90
30764;DHT22;17497;51.476;7.770;2022-10-15T13:32:30;18.70;99.90
30764;DHT22;17497;51.476;7.770;2022-10-15T13:34:59;18.80;99.90
30764;DHT22;17497;51.476;7.770;2022-10-15T13:37:31;18.90;99.90
30764;DHT22;17497;51.476;7.770;2022-10-15T13:39:58;18.90;99.90
30764;DHT22;17497;51.476;7.770;2022-10-15T13:42:33;18.50;99.90
30764;DHT22;17497;51.476;7.770;2022-10-15T13:47:35;18.20;99.90
30764;DHT22;17497;51.476;7.770;2022-10-15T13:52:41;18.20;99.90
30764;DHT22;17497;51.476;7.770;2022-10-15T13:55:16;18.40;99.90
30764;DHT22;17497;51.476;7.770;2022-10-15T13:57:44;18.50;99.90
30764;DHT22;17497;51.476;7.770;2022-10-15T14:00:32;18.60;99.90
30764;DHT22;17497;51.476;7.770;2022-10-15T14:05:34;18.70;99.90
30764;DHT22;17497;51.476;7.770;2022-10-15T14:08:01;18.50;99.90
30764;DHT22;17497;51.476;7.770;2022-10-15T14:10:28;18.60;99.90
30764;DHT22;17497;51.476;7.770;2022-10-15T14:12:55;18.30;99.90
30764;DHT22;17497;51.476;7.770;2022-10-15T14:18:09;18.40;99.90
30764;DHT22;17497;51.476;7.770;2022-10-15T14:20:36;18.50;99.90
30764;DHT22;17497;51.476;7.770;2022-10-15T14:23:02;18.50;99.90
30764;DHT22;17497;51.476;7.770;2022-10-15T14:25:29;18.50;99.90
30764;DHT22;17497;51.476;7.770;2022-10-15T14:27:56;18.70;99.90
30764;DHT22;17497;51.476;7.770;2022-10-15T14:30:30;18.70;99.90
30764;DHT22;17497;51.476;7.770;2022-10-15T14:32:58;18.80;99.90
30764;DHT22;17497;51.476;7.770;2022-10-15T14:35:31;18.70;99.90
30764;DHT22;17497;51.476;7.770;2022-10-15T14:38:02;18.70;99.90
30764;DHT22;17497;51.476;7.770;2022-10-15T14:40:30;18.70;99.90
30764;DHT22;17497;51.476;7.770;2022-10-15T14:43:05;18.60;99.90
30764;DHT22;17497;51.476;7.770;2022-10-15T14:48:21;18.50;99.90
30764;DHT22;17497;51.476;7.770;2022-10-15T14:50:49;18.40;99.90
30764;DHT22;17497;51.476;7.770;2022-10-15T14:53:23;18.40;99.90
30764;DHT22;17497;51.476;7.770;2022-10-15T14:55:55;18.30;99.90
30764;DHT22;17497;51.476;7.770;2022-10-15T14:58:24;18.40;99.90
30764;DHT22;17497;51.476;7.770;2022-10-15T15:01:00;18.40;99.90
30764;DHT22;17497;51.476;7.770;2022-10-15T15:03:48;18.40;99.90
30764;DHT22;17497;51.476;7.770;2022-10-15T15:06:15;18.40;99.90
30764;DHT22;17497;51.476;7.770;2022-10-15T15:08:42;18.40;99.90
30764;DHT22;17497;51.476;7.770;2022-10-15T15:11:20;18.30;99.90
30764;DHT22;17497;51.476;7.770;2022-10-15T15:13:48;18.20;99.90
30764;DHT22;17497;51.476;7.770;2022-10-15T15:16:16;18.30;99.90
30764;DHT22;17497;51.476;7.770;2022-10-15T15:18:43;18.20;99.90
30764;DHT22;17497;51.476;7.770;2022-10-15T15:21:14;18.20;99.90
30764;DHT22;17497;51.476;7.770;2022-10-15T15:23:43;18.20;99.90
30764;DHT22;17497;51.476;7.770;2022-10-15T15:26:10;18.10;99.90
30764;DHT22;17497;51.476;7.770;2022-10-15T15:28:37;18.10;99.90
30764;DHT22;17497;51.476;7.770;2022-10-15T15:31:06;18.20;99.90
30764;DHT22;17497;51.476;7.770;2022-10-15T15:33:37;18.20;99.90
30764;DHT22;17497;51.476;7.770;2022-10-15T15:36:14;18.20;99.90
30764;DHT22;17497;51.476;7.770;2022-10-15T15:38:47;18.20;99.90
30764;DHT22;17497;51.476;7.770;2022-10-15T15:41:19;18.20;99.90
30764;DHT22;17497;51.476;7.770;2022-10-15T15:43:46;18.20;99.90
30764;DHT22;17497;51.476;7.770;2022-10-15T15:46:14;18.30;99.90
30764;DHT22;17497;51.476;7.770;2022-10-15T15:48:41;18.20;99.90
30764;DHT22;17497;51.476;7.770;2022-10-15T15:51:21;18.20;99.90
30764;DHT22;17497;51.476;7.770;2022-10-15T15:53:49;18.20;99.90
30764;DHT22;17497;51.476;7.770;2022-10-15T15:56:16;18.20;99.90
30764;DHT22;17497;51.476;7.770;2022-10-15T15:58:43;18.10;99.90
30764;DHT22;17497;51.476;7.770;2022-10-15T16:01:10;18.10;99.90
30764;DHT22;17497;51.476;7.770;2022-10-15T16:03:37;18.00;99.90
30764;DHT22;17497;51.476;7.770;2022-10-15T16:06:05;17.90;99.90
30764;DHT22;17497;51.476;7.770;2022-10-15T16:08:33;17.90;99.90
30764;DHT22;17497;51.476;7.770;2022-10-15T16:11:01;17.90;99.90
30764;DHT22;17497;51.476;7.770;2022-10-15T16:13:29;18.00;99.90
30764;DHT22;17497;51.476;7.770;2022-10-15T16:15:56;18.00;99.90
30764;DHT22;17497;51.476;7.770;2022-10-15T16:18:23;17.90;99.90
30764;DHT22;17497;51.476;7.770;2022-10-15T16:20:50;17.90;99.90
30764;DHT22;17497;51.476;7.770;2022-10-15T16:23:16;17.80;99.90
30764;DHT22;17497;51.476;7.770;2022-10-15T16:25:43;17.70;99.90
30764;DHT22;17497;51.476;7.770;2022-10-15T16:28:10;17.70;99.90
30764;DHT22;17497;51.476;7.770;2022-10-15T16:30:36;17.70;99.90
30764;DHT22;17497;51.476;7.770;2022-10-15T16:33:03;17.60;99.90
30764;DHT22;17497;51.476;7.770;2022-10-15T16:35:35;17.60;99.90
30764;DHT22;17497;51.476;7.770;2022-10-15T16:38:01;17.40;99.90
30764;DHT22;17497;51.476;7.770;2022-10-15T16:40:28;17.20;99.90
30764;DHT22;17497;51.476;7.770;2022-10-15T16:42:55;17.00;99.90
30764;DHT22;17497;51.476;7.770;2022-10-15T16:45:22;16.90;99.90
30764;DHT22;17497;51.476;7.770;2022-10-15T16:47:49;16.70;99.90
30764;DHT22;17497;51.476;7.770;2022-10-15T16:50:16;16.50;99.90
30764;DHT22;17497;51.476;7.770;2022-10-15T16:52:47;16.50;99.90
30764;DHT22;17497;51.476;7.770;2022-10-15T16:55:23;16.30;99.90
30764;DHT22;17497;51.476;7.770;2022-10-15T16:57:49;16.20;99.90
30764;DHT22;17497;51.476;7.770;2022-10-15T17:00:16;16.10;99.90
30764;DHT22;17497;51.476;7.770;2022-10-15T17:02:42;16.10;99.90
30764;DHT22;17497;51.476;7.770;2022-10-15T17:05:09;16.00;99.90
30764;DHT22;17497;51.476;7.770;2022-10-15T17:07:36;15.90;99.90
30764;DHT22;17497;51.476;7.770;2022-10-15T17:10:03;15.90;99.90
30764;DHT22;17497;51.476;7.770;2022-10-15T17:12:30;15.80;99.90
30764;DHT22;17497;51.476;7.770;2022-10-15T17:14:57;15.80;99.90
30764;DHT22;17497;51.476;7.770;2022-10-15T17:17:23;15.80;99.90
30764;DHT22;17497;51.476;7.770;2022-10-15T17:19:50;15.80;99.90
30764;DHT22;17497;51.476;7.770;2022-10-15T17:22:17;15.70;99.90
30764;DHT22;17497;51.476;7.770;2022-10-15T17:24:44;15.80;99.90
30764;DHT22;17497;51.476;7.770;2022-10-15T17:27:10;15.70;99.90
30764;DHT22;17497;51.476;7.770;2022-10-15T17:29:37;15.80;99.90
30764;DHT22;17497;51.476;7.770;2022-10-15T17:32:04;15.80;99.90
30764;DHT22;17497;51.476;7.770;2022-10-15T17:34:31;15.80;99.90
30764;DHT22;17497;51.476;7.770;2022-10-15T17:36:58;15.70;99.90
30764;DHT22;17497;51.476;7.770;2022-10-15T17:39:24;15.80;99.90
30764;DHT22;17497;51.476;7.770;2022-10-15T17:41:51;15.80;99.90
30764;DHT22;17497;51.476;7.770;2022-10-15T17:44:18;15.80;99.90
30764;DHT22;17497;51.476;7.770;2022-10-15T17:46:45;15.80;99.90
30764;DHT22;17497;51.476;7.770;2022-10-15T17:49:12;15.80;99.90
30764;DHT22;17497;51.476;7.770;2022-10-15T17:51:44;15.80;99.90